Cresson, Texas
Current Conditions -  °F | °C
As of 12:15 PM on Friday 24 Oct 2014 (Local Time) from KGDJ Reporting Station
Clear Clear  
Wind Chill: 80°   Ceiling: Unl
Heat Index: 81°   Visibility: 10mi
Dew Point: 61°   Wind: 6mph
Humidity: 53%   Direction: 180°S
Pressure: 30.17"   Gusts: NA
Location:  32.53°N, 97.62°W
Report Text: KGDJ 241715Z AUTO 18005KT 10SM CLR 27/16 A3017 RMK AO2 T02670163
Loading
Personal Weather Stations






























Interactive Weather Map
Tropical Storm Tracking
New forecast layout! Learn more

10-Day Weather Forecast

Advertisements
Track Severe Weather on mobile